ベルリン・テーゲル国際空港の過去48時間の天気

ベルリン・テーゲル国際空港 (Berlin-Tegel)

現在時刻: 7/2 14:12 CEST (7/2 12:12 UTC) 以下の時間は現地時間です。

過去48時間のMETAR気象情報
時間 風向 風速(m/s) 視程 気温(℃) 湿度(%) 気圧(hPa) 天気現象
2 13:50 西 3 10km以上 22 53 1010
2 13:20 南西 4 10km以上 22 53 1010
2 12:50 西 4 10km以上 21 56 1010
2 12:20 西南西 4 10km以上 21 56 1010
2 11:50 西 4 10km以上 21 56 1010
2 11:20 西南西 5 10km以上 21 56 1010
2 10:50 西南西 4 10km以上 22 53 1010
2 10:20 西南西 4 10km以上 20 60 1010
2 09:50 西 5 10km以上 20 60 1010
2 09:20 西 5 10km以上 20 64 1009
2 08:50 西 4 10km以上 19 68 1009
2 08:20 西南西 5 10km以上 19 68 1009
2 07:50 西南西 5 2000m 18 77 1009
2 07:20 西南西 4 10km以上 18 77 1009
2 06:50 西南西 4 10km以上 18 83 1009
2 06:20 西南西 3 10km以上 17 88 1008 弱い雨
2 05:50 西南西 3 10km以上 16 94 1008
2 05:20 西南西 4 10km以上 16 94 1008
2 04:50 西南西 3 10km以上 15 94 1008
2 04:20 西南西 4 10km以上 15 94 1008
2 03:50 西 4 10km以上 16 94 1007
2 03:20 西南西 4 10km以上 16 94 1007
2 02:50 西南西 4 10km以上 16 94 1007
2 02:20 西 3 10km以上 16 88 1007
2 01:50 西南西 3 10km以上 17 88 1007
2 01:20 西南西 4 10km以上 17 88 1007
2 00:50 西 5 10km以上 18 83 1007
2 00:20 西南西 4 10km以上 18 83 1007
1 23:50 南西 2 10km以上 18 88 1006
1 23:20 南西 3 10km以上 18 88 1006
1 22:50 南西 3 10km以上 19 83 1007
1 22:20 西南西 2 10km以上 18 88 1006
1 21:50 北西 4 10km以上 19 83 1006
1 21:20 西北西 2 10km以上 19 88 1006
1 20:50 不定 2 10km以上 20 83 1006 弱いしゅう雨
1 20:20 北北西 2 10km以上 22 69 1005 弱いしゅう雨
1 19:50 不定 1 10km以上 22 69 1006
1 19:20 2 10km以上 23 61 1005
1 18:50 西 3 10km以上 23 61 1006
1 18:20 西南西 3 10km以上 23 61 1006
1 17:50 西 4 10km以上 23 61 1006
1 17:20 西 4 10km以上 23 65 1006
1 16:50 西南西 4 10km以上 22 73 1006
1 16:20 南西 4 10km以上 21 73 1007
1 15:50 南西 4 10km以上 21 78 1007
1 15:20 南西 4 10km以上 21 78 1007
1 14:50 南西 5 10km以上 20 83 1007 弱い雨
1 14:20 南西 5 10km以上 20 83 1008 弱い雨
1 13:50 南南西 5 10km以上 20 83 1008
1 13:20 南西 7 10km以上 20 78 1008
1 12:50 南西 6 10km以上 20 78 1008
1 12:20 南南西 8 10km以上 20 78 1008
1 11:50 南西 6 10km以上 19 83 1007 弱い雨
1 11:20 南南西 6 10km以上 19 83 1007 弱い雨
1 10:50 西南西 9 10km以上 21 69 1007 弱い雨
1 10:20 西南西 8 10km以上 22 60 1007 弱い雨
1 09:50 南西 6 10km以上 21 64 1007
1 09:20 南西 6 10km以上 21 60 1007
1 08:50 西南西 6 10km以上 21 60 1007
1 08:20 南西 6 10km以上 21 60 1007
1 07:50 南西 6 10km以上 20 60 1006
1 07:20 南西 6 10km以上 20 60 1006
1 06:50 南西 6 10km以上 20 60 1006
1 06:20 南西 7 10km以上 20 56 1006
1 05:50 南西 6 10km以上 20 56 1006
1 05:20 南南西 5 10km以上 19 60 1006
1 04:50 南南西 5 2000m 19 56 1006
1 04:20 南南西 5 10km以上 19 56 1006
1 03:50 南南西 4 10km以上 19 56 1006
1 03:20 南南西 4 10km以上 19 56 1006
1 02:50 南南西 4 10km以上 19 52 1006
1 02:20 南南西 3 10km以上 19 52 1006
1 01:50 4 10km以上 19 52 1007
1 01:20 南南西 4 10km以上 19 52 1007
1 00:50 南西 3 10km以上 19 52 1007
1 00:20 西南西 4 10km以上 19 49 1007
30 23:50 西南西 5 10km以上 20 46 1007
30 23:20 西南西 4 10km以上 20 46 1007
30 22:50 西南西 4 10km以上 20 46 1007
30 22:20 西南西 3 10km以上 20 46 1007
30 21:50 西南西 3 10km以上 20 46 1007
30 21:20 西南西 4 10km以上 20 46 1007
30 20:50 西 4 10km以上 21 43 1007
30 20:20 西 4 10km以上 21 43 1007
30 19:50 西 5 10km以上 21 43 1007
30 19:20 西 5 10km以上 21 43 1007
30 18:50 西北西 6 10km以上 22 41 1007
30 18:20 西南西 8 10km以上 22 38 1007
30 17:50 西 7 10km以上 22 38 1007
30 17:20 西 9 10km以上 23 36 1007
30 16:50 西南西 9 10km以上 24 34 1007
30 16:20 西 9 10km以上 24 34 1007
30 15:50 西 9 10km以上 22 41 1007
30 15:20 西 8 10km以上 23 41 1007
30 14:50 西 8 10km以上 23 38 1007
30 14:20 西南西 7 10km以上 22 41 1008
EDDT 021150Z 26005KT 170V300 9999 SCT038 22/12 Q1010 NOSIG
EDDT 021120Z 22008KT 190V270 9999 FEW038 22/12 Q1010 NOSIG
EDDT 021050Z 26008KT 9999 FEW038 21/12 Q1010 NOSIG
EDDT 021020Z 25008KT 9999 BKN038 21/12 Q1010 NOSIG
EDDT 020950Z 27007KT 240V310 9999 SCT038 21/12 Q1010 NOSIG
EDDT 020920Z 24009KT 210V270 9999 SCT036 21/12 Q1010 NOSIG
EDDT 020850Z 24008KT 210V270 9999 SCT036 22/12 Q1010 NOSIG
EDDT 020820Z 24008KT 220V280 9999 FEW036 20/12 Q1010 NOSIG
EDDT 020750Z 26009KT 220V280 9999 SCT032 20/12 Q1010 NOSIG
EDDT 020720Z 27010KT 240V300 9999 FEW028 20/13 Q1009 NOSIG
EDDT 020650Z 28007KT 240V330 9999 FEW025 19/13 Q1009 NOSIG
EDDT 020620Z 25010KT 220V280 9999 FEW022 19/13 Q1009 NOSIG
EDDT 020550Z AUTO 25009KT 220V280 //// R26R/P2000N R26L/P2000N // ///////// 18/14 Q1009 NOSIG
EDDT 020520Z 24007KT 9999 FEW014 18/14 Q1009 NOSIG
EDDT 020450Z 25007KT 9999 FEW011 18/15 Q1009 NOSIG
EDDT 020420Z 25006KT 9999 -RA SCT035 17/15 Q1008 NOSIG
EDDT 020350Z 25005KT 9999 FEW020 16/15 Q1008
EDDT 020320Z 24007KT 9999 FEW020 16/15 Q1008
EDDT 020250Z 25005KT 9999 FEW020 15/14 Q1008
EDDT 020220Z 25007KT CAVOK 15/14 Q1008
EDDT 020150Z 26007KT 9999 FEW025 16/15 Q1007
EDDT 020120Z 24007KT CAVOK 16/15 Q1007
EDDT 020050Z 25007KT CAVOK 16/15 Q1007
EDDT 020020Z 26006KT CAVOK 16/14 Q1007
EDDT 012350Z 25006KT CAVOK 17/15 Q1007
EDDT 012320Z 25007KT CAVOK 17/15 Q1007
EDDT 012250Z 26010KT CAVOK 18/15 Q1007
EDDT 012220Z 24007KT 210V270 CAVOK 18/15 Q1007
EDDT 012150Z 22004KT CAVOK 18/16 Q1006
EDDT 012120Z 23005KT CAVOK 18/16 Q1006
EDDT 012050Z 22006KT 200V260 CAVOK 19/16 Q1007 NOSIG
EDDT 012020Z 24003KT 9999 FEW038 SCT040 18/16 Q1006 NOSIG
EDDT 011950Z 31008KT 260V330 9999 FEW018 SCT040 19/16 Q1006 NOSIG
EDDT 011920Z 30004KT 280V350 9999 FEW017 19/17 Q1006
EDDT 011850Z VRB03KT 9999 -SHRA FEW016 FEW024CB 20/17 Q1006 TEMPO SHRA
EDDT 011820Z 33003KT 9999 -SHRA FEW024CB 22/16 Q1005 TEMPO 27020G30KT TSRA BKN020CB
EDDT 011750Z VRB02KT 9999 FEW032 22/16 Q1006 TEMPO 27020G30KT TSRA BKN020CB
EDDT 011720Z 35004KT 310V020 9999 FEW032 23/15 Q1005 NOSIG
EDDT 011650Z 27006KT 9999 FEW030 23/15 Q1006 NOSIG
EDDT 011620Z 25005KT 220V280 9999 FEW030 23/15 Q1006 NOSIG
EDDT 011550Z 26008KT 230V290 9999 FEW030 SCT044 23/15 Q1006 NOSIG
EDDT 011520Z 27007KT 220V300 9999 FEW024 23/16 Q1006 NOSIG
EDDT 011450Z 24007KT 9999 FEW024 22/17 Q1006 NOSIG
EDDT 011420Z 23007KT 9999 FEW020 21/16 Q1007 NOSIG
EDDT 011350Z 23007KT 200V260 9999 FEW020 21/17 Q1007 NOSIG
EDDT 011320Z 23008KT 200V260 9999 FEW017 21/17 Q1007 NOSIG
EDDT 011250Z 22010KT 9999 -RA SCT017 20/17 Q1007 NOSIG
EDDT 011220Z 23010KT 9999 -RA SCT017 20/17 Q1008 NOSIG
EDDT 011150Z 21010KT 9999 SCT017 20/17 Q1008 NOSIG
EDDT 011120Z 22013KT 9999 SCT020 20/16 Q1008 NOSIG
EDDT 011050Z 23011KT 190V260 9999 SCT018 20/16 Q1008 NOSIG
EDDT 011020Z 21015KT 9999 FEW015 20/16 Q1008 NOSIG
EDDT 010950Z 22011KT 9999 -RA FEW015 SCT040 19/16 Q1007 NOSIG
EDDT 010920Z 21011KT 190V250 9999 -RA FEW012 SCT032 19/16 Q1007 TEMPO 25015G25KT
EDDT 010850Z 25017KT 9999 -RA BKN032 21/15 Q1007 TEMPO 25015G25KT
EDDT 010820Z 25015KT 9999 -RA BKN032 22/14 Q1007 NOSIG
EDDT 010750Z 23012KT 180V260 9999 BKN033 21/14 Q1007 NOSIG
EDDT 010720Z 22012KT 9999 BKN033 21/13 Q1007 NOSIG
EDDT 010650Z 25012KT 9999 BKN033 21/13 Q1007 NOSIG
EDDT 010620Z 22012KT 9999 BKN033 21/13 Q1007 NOSIG
EDDT 010550Z 22011KT 9999 BKN033 20/12 Q1006 NOSIG
EDDT 010520Z 22012KT 180V250 9999 BKN034 20/12 Q1006 NOSIG
EDDT 010450Z 23012KT 9999 BKN036 20/12 Q1006 NOSIG
EDDT 010420Z 22013KT 9999 BKN036 20/11 Q1006 NOSIG
EDDT 010350Z 22012KT 9999 BKN039 20/11 Q1006 NOSIG
EDDT 010320Z 21009KT 9999 BKN038 19/11 Q1006 NOSIG
EDDT 010250Z AUTO 21009KT //// R26R/P2000N R26L/P2000N // ///////// 19/10 Q1006
EDDT 010220Z 21009KT CAVOK 19/10 Q1006
EDDT 010150Z 20008KT CAVOK 19/10 Q1006
EDDT 010120Z 20008KT CAVOK 19/10 Q1006
EDDT 010050Z 20007KT CAVOK 19/09 Q1006
EDDT 010020Z 21006KT CAVOK 19/09 Q1006
EDDT 302350Z 19007KT CAVOK 19/09 Q1007
EDDT 302320Z 20007KT CAVOK 19/09 Q1007
EDDT 302250Z 22005KT 180V250 CAVOK 19/09 Q1007
EDDT 302220Z 25007KT CAVOK 19/08 Q1007
EDDT 302150Z 25009KT CAVOK 20/08 Q1007
EDDT 302120Z 24008KT CAVOK 20/08 Q1007
EDDT 302050Z 25008KT CAVOK 20/08 Q1007 NOSIG
EDDT 302020Z 24006KT CAVOK 20/08 Q1007 NOSIG
EDDT 301950Z 24006KT CAVOK 20/08 Q1007 NOSIG
EDDT 301920Z 25007KT CAVOK 20/08 Q1007 NOSIG
EDDT 301850Z 27007KT 240V300 CAVOK 21/08 Q1007 NOSIG
EDDT 301820Z 27007KT 240V310 CAVOK 21/08 Q1007 NOSIG
EDDT 301750Z 27009KT 250V320 CAVOK 21/08 Q1007 NOSIG
EDDT 301720Z 27010KT 250V310 CAVOK 21/08 Q1007 NOSIG
EDDT 301650Z 29011KT 260V330 CAVOK 22/08 Q1007 TEMPO 27015G25KT
EDDT 301620Z 25016KT CAVOK 22/07 Q1007 TEMPO 27015G25KT
EDDT 301550Z 28013KT 240V310 CAVOK 22/07 Q1007 TEMPO 27015G25KT
EDDT 301520Z 26017KT 240V310 CAVOK 23/07 Q1007 NOSIG
EDDT 301450Z 25017KT 220V280 CAVOK 24/07 Q1007 TEMPO 24015G25KT
EDDT 301420Z 27017KT 240V300 CAVOK 24/07 Q1007 TEMPO 26015G25KT
EDDT 301350Z 26017KT 220V290 CAVOK 22/08 Q1007 TEMPO 24015G25KT
EDDT 301320Z 26015KT CAVOK 23/09 Q1007 TEMPO 23015G25KT
EDDT 301250Z 26015KT CAVOK 23/08 Q1007 TEMPO 23015G25KT
EDDT 301220Z 25014KT 190V270 CAVOK 22/08 Q1008 TEMPO 23015G25KT